sensor_id;sensor_type;location;lat;lon;timestamp;P1;durP1;ratioP1;P2;durP2;ratioP2
23360;SDS011;11852;50.082;18.554;2023-06-10T00:00:29;9.9;;;8.5;;
23360;SDS011;11852;50.082;18.554;2023-06-10T00:01:35;10.2;;;7.7;;
23360;SDS011;11852;50.082;18.554;2023-06-10T00:02:40;10.9;;;8.1;;
23360;SDS011;11852;50.082;18.554;2023-06-10T00:03:45;11.7;;;9.5;;
23360;SDS011;11852;50.082;18.554;2023-06-10T00:04:51;10.3;;;8.1;;
23360;SDS011;11852;50.082;18.554;2023-06-10T00:05:55;9.8;;;8.8;;
23360;SDS011;11852;50.082;18.554;2023-06-10T00:07:01;10.9;;;8.9;;
23360;SDS011;11852;50.082;18.554;2023-06-10T00:08:08;9.6;;;8.4;;
23360;SDS011;11852;50.082;18.554;2023-06-10T00:09:13;12.9;;;8.2;;
23360;SDS011;11852;50.082;18.554;2023-06-10T00:10:18;10.1;;;8.9;;
23360;SDS011;11852;50.082;18.554;2023-06-10T00:11:22;11.1;;;9.5;;
23360;SDS011;11852;50.082;18.554;2023-06-10T00:12:29;10.1;;;8.9;;
23360;SDS011;11852;50.082;18.554;2023-06-10T00:13:34;11.0;;;8.8;;
23360;SDS011;11852;50.082;18.554;2023-06-10T00:14:43;12.8;;;8.6;;
23360;SDS011;11852;50.082;18.554;2023-06-10T00:15:48;10.4;;;8.1;;
23360;SDS011;11852;50.082;18.554;2023-06-10T00:16:53;11.1;;;8.7;;
23360;SDS011;11852;50.082;18.554;2023-06-10T00:17:58;10.2;;;8.7;;
23360;SDS011;11852;50.082;18.554;2023-06-10T00:19:03;10.0;;;8.5;;
23360;SDS011;11852;50.082;18.554;2023-06-10T00:20:08;10.2;;;9.1;;
23360;SDS011;11852;50.082;18.554;2023-06-10T00:21:12;10.3;;;8.1;;
23360;SDS011;11852;50.082;18.554;2023-06-10T00:22:17;10.7;;;8.3;;
23360;SDS011;11852;50.082;18.554;2023-06-10T00:23:22;13.3;;;8.9;;
23360;SDS011;11852;50.082;18.554;2023-06-10T00:24:27;11.0;;;9.9;;
23360;SDS011;11852;50.082;18.554;2023-06-10T00:25:31;11.6;;;9.6;;
23360;SDS011;11852;50.082;18.554;2023-06-10T00:26:36;10.8;;;9.3;;
23360;SDS011;11852;50.082;18.554;2023-06-10T00:27:41;11.7;;;8.9;;
23360;SDS011;11852;50.082;18.554;2023-06-10T00:28:46;11.3;;;9.1;;
23360;SDS011;11852;50.082;18.554;2023-06-10T00:29:50;10.3;;;7.9;;
23360;SDS011;11852;50.082;18.554;2023-06-10T00:30:56;11.1;;;8.5;;
23360;SDS011;11852;50.082;18.554;2023-06-10T00:32:02;12.9;;;9.2;;
23360;SDS011;11852;50.082;18.554;2023-06-10T00:33:06;11.0;;;9.0;;
23360;SDS011;11852;50.082;18.554;2023-06-10T00:34:11;10.5;;;9.4;;
23360;SDS011;11852;50.082;18.554;2023-06-10T00:35:16;9.3;;;8.0;;
23360;SDS011;11852;50.082;18.554;2023-06-10T00:36:21;11.6;;;8.6;;
23360;SDS011;11852;50.082;18.554;2023-06-10T00:37:26;10.8;;;9.7;;
23360;SDS011;11852;50.082;18.554;2023-06-10T00:38:31;10.7;;;9.6;;
23360;SDS011;11852;50.082;18.554;2023-06-10T00:39:35;10.0;;;8.4;;
23360;SDS011;11852;50.082;18.554;2023-06-10T00:40:40;9.1;;;7.8;;
23360;SDS011;11852;50.082;18.554;2023-06-10T00:41:45;9.8;;;8.6;;
23360;SDS011;11852;50.082;18.554;2023-06-10T00:42:50;10.7;;;8.8;;
23360;SDS011;11852;50.082;18.554;2023-06-10T00:43:55;10.1;;;9.0;;
23360;SDS011;11852;50.082;18.554;2023-06-10T00:44:59;10.9;;;9.3;;
23360;SDS011;11852;50.082;18.554;2023-06-10T00:46:04;12.2;;;8.9;;
23360;SDS011;11852;50.082;18.554;2023-06-10T00:47:09;9.8;;;8.7;;
23360;SDS011;11852;50.082;18.554;2023-06-10T00:48:15;12.0;;;9.6;;
23360;SDS011;11852;50.082;18.554;2023-06-10T00:49:19;11.6;;;9.0;;
23360;SDS011;11852;50.082;18.554;2023-06-10T00:50:24;10.0;;;9.0;;
23360;SDS011;11852;50.082;18.554;2023-06-10T00:51:29;11.3;;;10.1;;
23360;SDS011;11852;50.082;18.554;2023-06-10T00:52:34;10.4;;;8.8;;
23360;SDS011;11852;50.082;18.554;2023-06-10T00:53:40;10.9;;;9.7;;
23360;SDS011;11852;50.082;18.554;2023-06-10T00:54:44;11.9;;;10.1;;
23360;SDS011;11852;50.082;18.554;2023-06-10T00:55:49;12.5;;;9.8;;
23360;SDS011;11852;50.082;18.554;2023-06-10T00:56:54;9.5;;;8.5;;
23360;SDS011;11852;50.082;18.554;2023-06-10T00:57:59;12.0;;;9.7;;
23360;SDS011;11852;50.082;18.554;2023-06-10T00:59:04;12.7;;;9.7;;
23360;SDS011;11852;50.082;18.554;2023-06-10T01:00:09;11.4;;;9.8;;
23360;SDS011;11852;50.082;18.554;2023-06-10T01:01:14;12.5;;;11.2;;
23360;SDS011;11852;50.082;18.554;2023-06-10T01:02:19;12.7;;;10.9;;
23360;SDS011;11852;50.082;18.554;2023-06-10T01:03:24;11.5;;;9.8;;
23360;SDS011;11852;50.082;18.554;2023-06-10T01:04:28;11.5;;;9.6;;
23360;SDS011;11852;50.082;18.554;2023-06-10T01:05:34;11.1;;;9.5;;
23360;SDS011;11852;50.082;18.554;2023-06-10T01:10:11;12.5;;;10.0;;
23360;SDS011;11852;50.082;18.554;2023-06-10T01:11:21;10.4;;;9.1;;
23360;SDS011;11852;50.082;18.554;2023-06-10T01:12:29;10.7;;;8.5;;
23360;SDS011;11852;50.082;18.554;2023-06-10T01:13:31;12.2;;;10.3;;
23360;SDS011;11852;50.082;18.554;2023-06-10T01:14:36;13.5;;;12.1;;
23360;SDS011;11852;50.082;18.554;2023-06-10T01:15:41;12.6;;;10.8;;
23360;SDS011;11852;50.082;18.554;2023-06-10T01:16:45;11.8;;;10.6;;
23360;SDS011;11852;50.082;18.554;2023-06-10T01:17:55;12.5;;;10.6;;
23360;SDS011;11852;50.082;18.554;2023-06-10T01:18:57;13.3;;;11.9;;
23360;SDS011;11852;50.082;18.554;2023-06-10T01:20:02;10.5;;;9.4;;
23360;SDS011;11852;50.082;18.554;2023-06-10T01:21:07;12.9;;;10.6;;
23360;SDS011;11852;50.082;18.554;2023-06-10T01:22:13;11.4;;;10.0;;
23360;SDS011;11852;50.082;18.554;2023-06-10T01:23:18;10.4;;;8.8;;
23360;SDS011;11852;50.082;18.554;2023-06-10T01:24:23;12.9;;;10.5;;
23360;SDS011;11852;50.082;18.554;2023-06-10T01:25:27;12.4;;;11.1;;
23360;SDS011;11852;50.082;18.554;2023-06-10T01:26:32;13.9;;;12.4;;
23360;SDS011;11852;50.082;18.554;2023-06-10T01:27:37;12.1;;;10.8;;
23360;SDS011;11852;50.082;18.554;2023-06-10T01:29:54;15.1;;;11.5;;
23360;SDS011;11852;50.082;18.554;2023-06-10T01:31:02;12.6;;;9.7;;
23360;SDS011;11852;50.082;18.554;2023-06-10T01:33:23;13.0;;;10.7;;
23360;SDS011;11852;50.082;18.554;2023-06-10T01:34:25;13.0;;;10.7;;
23360;SDS011;11852;50.082;18.554;2023-06-10T01:35:30;12.3;;;10.9;;
23360;SDS011;11852;50.082;18.554;2023-06-10T01:36:37;12.5;;;9.8;;
23360;SDS011;11852;50.082;18.554;2023-06-10T01:37:43;11.8;;;9.7;;
23360;SDS011;11852;50.082;18.554;2023-06-10T01:38:47;13.7;;;11.3;;
23360;SDS011;11852;50.082;18.554;2023-06-10T01:39:51;17.6;;;11.5;;
23360;SDS011;11852;50.082;18.554;2023-06-10T01:40:56;13.5;;;11.7;;
23360;SDS011;11852;50.082;18.554;2023-06-10T01:42:01;12.5;;;11.2;;
23360;SDS011;11852;50.082;18.554;2023-06-10T01:43:05;13.1;;;11.0;;
23360;SDS011;11852;50.082;18.554;2023-06-10T01:44:11;14.6;;;12.3;;
23360;SDS011;11852;50.082;18.554;2023-06-10T01:45:16;13.4;;;11.9;;
23360;SDS011;11852;50.082;18.554;2023-06-10T01:46:21;13.6;;;11.1;;
23360;SDS011;11852;50.082;18.554;2023-06-10T01:47:26;13.8;;;11.4;;
23360;SDS011;11852;50.082;18.554;2023-06-10T01:48:31;12.6;;;11.3;;
23360;SDS011;11852;50.082;18.554;2023-06-10T01:49:35;14.5;;;12.8;;
23360;SDS011;11852;50.082;18.554;2023-06-10T01:50:41;14.6;;;12.2;;
23360;SDS011;11852;50.082;18.554;2023-06-10T01:51:46;14.1;;;11.9;;
23360;SDS011;11852;50.082;18.554;2023-06-10T01:52:51;13.6;;;11.8;;
23360;SDS011;11852;50.082;18.554;2023-06-10T01:53:55;14.4;;;12.3;;
23360;SDS011;11852;50.082;18.554;2023-06-10T01:55:00;13.5;;;11.8;;
23360;SDS011;11852;50.082;18.554;2023-06-10T01:56:05;14.8;;;12.4;;
23360;SDS011;11852;50.082;18.554;2023-06-10T01:57:10;15.2;;;11.6;;
23360;SDS011;11852;50.082;18.554;2023-06-10T01:58:15;15.3;;;11.9;;
23360;SDS011;11852;50.082;18.554;2023-06-10T01:59:21;13.0;;;11.3;;
23360;SDS011;11852;50.082;18.554;2023-06-10T02:00:26;14.6;;;11.7;;
23360;SDS011;11852;50.082;18.554;2023-06-10T02:01:31;16.1;;;13.0;;
23360;SDS011;11852;50.082;18.554;2023-06-10T02:02:36;13.7;;;12.1;;
23360;SDS011;11852;50.082;18.554;2023-06-10T02:03:40;13.7;;;11.6;;
23360;SDS011;11852;50.082;18.554;2023-06-10T02:04:45;13.0;;;10.9;;
23360;SDS011;11852;50.082;18.554;2023-06-10T02:05:50;13.7;;;12.2;;
23360;SDS011;11852;50.082;18.554;2023-06-10T02:06:55;16.1;;;13.1;;
23360;SDS011;11852;50.082;18.554;2023-06-10T02:08:00;15.9;;;13.1;;
23360;SDS011;11852;50.082;18.554;2023-06-10T02:09:04;13.3;;;11.8;;
23360;SDS011;11852;50.082;18.554;2023-06-10T02:10:09;15.1;;;12.5;;
23360;SDS011;11852;50.082;18.554;2023-06-10T02:11:14;13.1;;;11.0;;
23360;SDS011;11852;50.082;18.554;2023-06-10T02:12:19;15.9;;;13.1;;
23360;SDS011;11852;50.082;18.554;2023-06-10T02:13:23;13.3;;;11.9;;
23360;SDS011;11852;50.082;18.554;2023-06-10T02:14:29;13.7;;;12.2;;
23360;SDS011;11852;50.082;18.554;2023-06-10T02:15:35;14.6;;;12.3;;
23360;SDS011;11852;50.082;18.554;2023-06-10T02:16:41;15.6;;;13.7;;
23360;SDS011;11852;50.082;18.554;2023-06-10T02:17:46;15.6;;;12.8;;
23360;SDS011;11852;50.082;18.554;2023-06-10T02:18:51;14.8;;;12.9;;
23360;SDS011;11852;50.082;18.554;2023-06-10T02:19:57;16.4;;;14.0;;
23360;SDS011;11852;50.082;18.554;2023-06-10T02:21:01;14.6;;;12.1;;
23360;SDS011;11852;50.082;18.554;2023-06-10T02:22:06;13.5;;;11.1;;
23360;SDS011;11852;50.082;18.554;2023-06-10T02:23:11;13.9;;;11.7;;
23360;SDS011;11852;50.082;18.554;2023-06-10T02:24:16;14.2;;;12.4;;
23360;SDS011;11852;50.082;18.554;2023-06-10T02:25:20;14.1;;;11.5;;
23360;SDS011;11852;50.082;18.554;2023-06-10T02:26:25;13.5;;;11.7;;
23360;SDS011;11852;50.082;18.554;2023-06-10T02:27:31;14.8;;;12.6;;
23360;SDS011;11852;50.082;18.554;2023-06-10T02:28:35;16.9;;;13.6;;
23360;SDS011;11852;50.082;18.554;2023-06-10T02:29:40;15.0;;;12.4;;
23360;SDS011;11852;50.082;18.554;2023-06-10T02:30:46;16.0;;;12.9;;
23360;SDS011;11852;50.082;18.554;2023-06-10T02:31:51;16.4;;;13.6;;
23360;SDS011;11852;50.082;18.554;2023-06-10T02:32:55;13.7;;;11.9;;
23360;SDS011;11852;50.082;18.554;2023-06-10T02:34:03;15.6;;;12.3;;
23360;SDS011;11852;50.082;18.554;2023-06-10T02:35:08;17.3;;;14.7;;
23360;SDS011;11852;50.082;18.554;2023-06-10T02:36:12;16.8;;;14.4;;
23360;SDS011;11852;50.082;18.554;2023-06-10T02:37:17;16.9;;;14.4;;
23360;SDS011;11852;50.082;18.554;2023-06-10T02:38:22;15.9;;;13.8;;
23360;SDS011;11852;50.082;18.554;2023-06-10T02:39:27;16.4;;;13.7;;
23360;SDS011;11852;50.082;18.554;2023-06-10T02:40:32;17.3;;;15.0;;
23360;SDS011;11852;50.082;18.554;2023-06-10T02:41:36;16.0;;;13.3;;
23360;SDS011;11852;50.082;18.554;2023-06-10T02:42:41;16.2;;;13.9;;
23360;SDS011;11852;50.082;18.554;2023-06-10T02:43:46;16.3;;;14.2;;
23360;SDS011;11852;50.082;18.554;2023-06-10T02:44:51;18.4;;;14.0;;
23360;SDS011;11852;50.082;18.554;2023-06-10T02:45:56;15.7;;;13.5;;
23360;SDS011;11852;50.082;18.554;2023-06-10T02:47:00;15.8;;;14.1;;
23360;SDS011;11852;50.082;18.554;2023-06-10T02:48:05;15.6;;;13.4;;
23360;SDS011;11852;50.082;18.554;2023-06-10T02:49:11;16.0;;;13.1;;
23360;SDS011;11852;50.082;18.554;2023-06-10T02:50:15;17.2;;;13.2;;
23360;SDS011;11852;50.082;18.554;2023-06-10T02:51:20;17.0;;;12.4;;
23360;SDS011;11852;50.082;18.554;2023-06-10T02:52:25;17.9;;;13.2;;
23360;SDS011;11852;50.082;18.554;2023-06-10T02:53:30;15.8;;;13.9;;
23360;SDS011;11852;50.082;18.554;2023-06-10T02:54:35;16.1;;;13.5;;
23360;SDS011;11852;50.082;18.554;2023-06-10T02:55:40;16.0;;;13.1;;
23360;SDS011;11852;50.082;18.554;2023-06-10T02:56:44;13.9;;;12.4;;
23360;SDS011;11852;50.082;18.554;2023-06-10T02:57:50;14.5;;;12.3;;
23360;SDS011;11852;50.082;18.554;2023-06-10T02:58:55;15.0;;;13.4;;
23360;SDS011;11852;50.082;18.554;2023-06-10T03:00:00;15.8;;;13.2;;
23360;SDS011;11852;50.082;18.554;2023-06-10T03:01:05;14.5;;;12.9;;
23360;SDS011;11852;50.082;18.554;2023-06-10T03:02:10;15.0;;;12.9;;
23360;SDS011;11852;50.082;18.554;2023-06-10T03:03:15;15.4;;;12.6;;
23360;SDS011;11852;50.082;18.554;2023-06-10T03:04:20;15.8;;;12.8;;
23360;SDS011;11852;50.082;18.554;2023-06-10T03:05:25;15.6;;;12.7;;
23360;SDS011;11852;50.082;18.554;2023-06-10T03:06:30;17.5;;;13.6;;
23360;SDS011;11852;50.082;18.554;2023-06-10T03:07:36;15.5;;;12.5;;
23360;SDS011;11852;50.082;18.554;2023-06-10T03:08:42;15.6;;;13.3;;
23360;SDS011;11852;50.082;18.554;2023-06-10T03:09:46;15.8;;;14.0;;
23360;SDS011;11852;50.082;18.554;2023-06-10T03:10:51;15.6;;;13.1;;
23360;SDS011;11852;50.082;18.554;2023-06-10T03:11:56;15.1;;;13.3;;
23360;SDS011;11852;50.082;18.554;2023-06-10T03:13:01;16.6;;;13.8;;
23360;SDS011;11852;50.082;18.554;2023-06-10T03:14:05;15.4;;;12.8;;
23360;SDS011;11852;50.082;18.554;2023-06-10T03:15:10;14.5;;;12.8;;
23360;SDS011;11852;50.082;18.554;2023-06-10T03:16:15;15.6;;;13.8;;
23360;SDS011;11852;50.082;18.554;2023-06-10T03:17:20;15.3;;;13.7;;
23360;SDS011;11852;50.082;18.554;2023-06-10T03:18:25;15.4;;;13.3;;
23360;SDS011;11852;50.082;18.554;2023-06-10T03:19:29;15.5;;;12.8;;
23360;SDS011;11852;50.082;18.554;2023-06-10T03:20:34;16.1;;;13.4;;
23360;SDS011;11852;50.082;18.554;2023-06-10T03:21:43;15.4;;;13.3;;
23360;SDS011;11852;50.082;18.554;2023-06-10T03:22:44;15.5;;;13.6;;
23360;SDS011;11852;50.082;18.554;2023-06-10T03:23:49;14.8;;;13.2;;
23360;SDS011;11852;50.082;18.554;2023-06-10T03:24:54;17.3;;;14.3;;
23360;SDS011;11852;50.082;18.554;2023-06-10T03:25:59;16.2;;;13.6;;
23360;SDS011;11852;50.082;18.554;2023-06-10T03:27:04;14.7;;;13.2;;
23360;SDS011;11852;50.082;18.554;2023-06-10T03:28:08;14.8;;;12.1;;
23360;SDS011;11852;50.082;18.554;2023-06-10T03:29:13;15.8;;;13.5;;
23360;SDS011;11852;50.082;18.554;2023-06-10T03:30:18;14.8;;;13.2;;
23360;SDS011;11852;50.082;18.554;2023-06-10T03:31:23;17.3;;;13.7;;
23360;SDS011;11852;50.082;18.554;2023-06-10T03:32:28;17.5;;;13.4;;
23360;SDS011;11852;50.082;18.554;2023-06-10T03:33:33;15.0;;;13.4;;
23360;SDS011;11852;50.082;18.554;2023-06-10T03:34:40;14.5;;;12.4;;
23360;SDS011;11852;50.082;18.554;2023-06-10T03:35:44;15.6;;;12.9;;
23360;SDS011;11852;50.082;18.554;2023-06-10T03:36:49;15.7;;;13.9;;
23360;SDS011;11852;50.082;18.554;2023-06-10T03:37:54;16.4;;;13.8;;
23360;SDS011;11852;50.082;18.554;2023-06-10T03:38:58;15.3;;;13.7;;
23360;SDS011;11852;50.082;18.554;2023-06-10T03:40:03;15.1;;;12.8;;
23360;SDS011;11852;50.082;18.554;2023-06-10T03:41:08;15.3;;;12.5;;
23360;SDS011;11852;50.082;18.554;2023-06-10T03:42:13;16.2;;;13.5;;
23360;SDS011;11852;50.082;18.554;2023-06-10T03:43:18;16.0;;;14.3;;
23360;SDS011;11852;50.082;18.554;2023-06-10T03:44:24;14.4;;;12.9;;
23360;SDS011;11852;50.082;18.554;2023-06-10T03:45:31;14.9;;;13.1;;
23360;SDS011;11852;50.082;18.554;2023-06-10T03:46:35;14.9;;;12.9;;
23360;SDS011;11852;50.082;18.554;2023-06-10T03:47:40;16.5;;;13.8;;
23360;SDS011;11852;50.082;18.554;2023-06-10T03:48:45;14.6;;;13.0;;
23360;SDS011;11852;50.082;18.554;2023-06-10T03:49:50;14.2;;;12.3;;
23360;SDS011;11852;50.082;18.554;2023-06-10T03:50:55;14.8;;;12.5;;
23360;SDS011;11852;50.082;18.554;2023-06-10T03:51:59;15.2;;;13.6;;
23360;SDS011;11852;50.082;18.554;2023-06-10T03:53:04;16.6;;;13.8;;
23360;SDS011;11852;50.082;18.554;2023-06-10T03:54:09;15.6;;;13.1;;
23360;SDS011;11852;50.082;18.554;2023-06-10T03:55:14;16.4;;;13.6;;
23360;SDS011;11852;50.082;18.554;2023-06-10T03:56:19;15.2;;;13.6;;
23360;SDS011;11852;50.082;18.554;2023-06-10T03:57:26;17.1;;;13.9;;
23360;SDS011;11852;50.082;18.554;2023-06-10T03:58:30;15.1;;;13.5;;
23360;SDS011;11852;50.082;18.554;2023-06-10T03:59:35;14.8;;;13.1;;
23360;SDS011;11852;50.082;18.554;2023-06-10T04:00:43;14.7;;;13.0;;
23360;SDS011;11852;50.082;18.554;2023-06-10T04:01:48;15.7;;;12.8;;
23360;SDS011;11852;50.082;18.554;2023-06-10T04:02:53;15.3;;;13.7;;
23360;SDS011;11852;50.082;18.554;2023-06-10T04:03:57;16.9;;;13.9;;
23360;SDS011;11852;50.082;18.554;2023-06-10T04:05:03;16.0;;;13.4;;
23360;SDS011;11852;50.082;18.554;2023-06-10T04:06:07;14.5;;;12.5;;
23360;SDS011;11852;50.082;18.554;2023-06-10T04:07:12;15.4;;;13.1;;
23360;SDS011;11852;50.082;18.554;2023-06-10T04:08:17;14.1;;;11.9;;
23360;SDS011;11852;50.082;18.554;2023-06-10T04:09:22;15.9;;;12.9;;
23360;SDS011;11852;50.082;18.554;2023-06-10T04:10:27;15.8;;;13.2;;
23360;SDS011;11852;50.082;18.554;2023-06-10T04:11:32;16.0;;;14.0;;
23360;SDS011;11852;50.082;18.554;2023-06-10T04:12:37;16.5;;;13.9;;
23360;SDS011;11852;50.082;18.554;2023-06-10T04:13:42;16.1;;;13.0;;
23360;SDS011;11852;50.082;18.554;2023-06-10T04:14:47;17.4;;;13.6;;
23360;SDS011;11852;50.082;18.554;2023-06-10T04:15:52;13.8;;;12.3;;
23360;SDS011;11852;50.082;18.554;2023-06-10T04:16:57;14.9;;;13.2;;
23360;SDS011;11852;50.082;18.554;2023-06-10T04:18:02;15.9;;;14.2;;
23360;SDS011;11852;50.082;18.554;2023-06-10T04:19:07;16.6;;;13.5;;
23360;SDS011;11852;50.082;18.554;2023-06-10T04:20:12;15.1;;;13.4;;
23360;SDS011;11852;50.082;18.554;2023-06-10T04:21:18;14.6;;;11.9;;
23360;SDS011;11852;50.082;18.554;2023-06-10T04:22:23;16.2;;;13.9;;
23360;SDS011;11852;50.082;18.554;2023-06-10T04:23:28;17.6;;;14.6;;
23360;SDS011;11852;50.082;18.554;2023-06-10T04:24:32;15.2;;;13.6;;
23360;SDS011;11852;50.082;18.554;2023-06-10T04:25:38;14.9;;;12.9;;
23360;SDS011;11852;50.082;18.554;2023-06-10T04:26:43;14.9;;;11.9;;
23360;SDS011;11852;50.082;18.554;2023-06-10T04:27:49;15.5;;;13.6;;
23360;SDS011;11852;50.082;18.554;2023-06-10T04:28:53;17.5;;;13.8;;
23360;SDS011;11852;50.082;18.554;2023-06-10T04:29:58;16.9;;;13.1;;
23360;SDS011;11852;50.082;18.554;2023-06-10T04:31:03;15.7;;;12.6;;
23360;SDS011;11852;50.082;18.554;2023-06-10T04:32:08;13.4;;;11.6;;
23360;SDS011;11852;50.082;18.554;2023-06-10T04:33:12;15.2;;;13.0;;
23360;SDS011;11852;50.082;18.554;2023-06-10T04:34:17;16.4;;;14.3;;
23360;SDS011;11852;50.082;18.554;2023-06-10T04:35:22;15.9;;;13.0;;
23360;SDS011;11852;50.082;18.554;2023-06-10T04:36:27;15.2;;;11.8;;
23360;SDS011;11852;50.082;18.554;2023-06-10T04:37:32;15.2;;;12.9;;
23360;SDS011;11852;50.082;18.554;2023-06-10T04:38:36;16.5;;;13.7;;
23360;SDS011;11852;50.082;18.554;2023-06-10T04:39:41;17.3;;;15.2;;
23360;SDS011;11852;50.082;18.554;2023-06-10T04:40:46;15.6;;;12.3;;
23360;SDS011;11852;50.082;18.554;2023-06-10T04:41:52;15.9;;;13.1;;
23360;SDS011;11852;50.082;18.554;2023-06-10T04:42:58;16.0;;;13.4;;
23360;SDS011;11852;50.082;18.554;2023-06-10T04:44:02;16.2;;;12.9;;
23360;SDS011;11852;50.082;18.554;2023-06-10T04:45:08;16.0;;;13.0;;
23360;SDS011;11852;50.082;18.554;2023-06-10T04:46:13;19.7;;;12.8;;
23360;SDS011;11852;50.082;18.554;2023-06-10T04:47:18;14.3;;;11.5;;
23360;SDS011;11852;50.082;18.554;2023-06-10T04:48:23;15.5;;;12.4;;
23360;SDS011;11852;50.082;18.554;2023-06-10T04:49:28;18.6;;;14.3;;
23360;SDS011;11852;50.082;18.554;2023-06-10T04:50:33;16.4;;;13.3;;
23360;SDS011;11852;50.082;18.554;2023-06-10T04:51:38;16.5;;;13.0;;
23360;SDS011;11852;50.082;18.554;2023-06-10T04:52:43;16.4;;;13.9;;
23360;SDS011;11852;50.082;18.554;2023-06-10T04:53:47;17.3;;;13.8;;
23360;SDS011;11852;50.082;18.554;2023-06-10T04:54:52;17.1;;;14.7;;
23360;SDS011;11852;50.082;18.554;2023-06-10T04:55:57;16.0;;;11.8;;
23360;SDS011;11852;50.082;18.554;2023-06-10T04:57:03;15.4;;;12.4;;
23360;SDS011;11852;50.082;18.554;2023-06-10T04:58:08;15.0;;;11.1;;
23360;SDS011;11852;50.082;18.554;2023-06-10T04:59:13;15.0;;;11.6;;
23360;SDS011;11852;50.082;18.554;2023-06-10T05:00:17;15.0;;;11.4;;
23360;SDS011;11852;50.082;18.554;2023-06-10T05:01:22;14.6;;;11.8;;
23360;SDS011;11852;50.082;18.554;2023-06-10T05:02:27;16.3;;;13.5;;
23360;SDS011;11852;50.082;18.554;2023-06-10T05:03:32;15.9;;;12.2;;
23360;SDS011;11852;50.082;18.554;2023-06-10T05:04:37;16.1;;;13.2;;
23360;SDS011;11852;50.082;18.554;2023-06-10T05:05:43;16.4;;;13.7;;
23360;SDS011;11852;50.082;18.554;2023-06-10T05:06:48;14.8;;;12.7;;
23360;SDS011;11852;50.082;18.554;2023-06-10T05:07:53;14.1;;;11.4;;
23360;SDS011;11852;50.082;18.554;2023-06-10T05:08:59;15.9;;;11.8;;
23360;SDS011;11852;50.082;18.554;2023-06-10T05:10:04;15.0;;;11.7;;
23360;SDS011;11852;50.082;18.554;2023-06-10T05:11:09;15.9;;;13.3;;
23360;SDS011;11852;50.082;18.554;2023-06-10T05:12:14;15.7;;;12.9;;
23360;SDS011;11852;50.082;18.554;2023-06-10T05:13:18;13.4;;;11.6;;
23360;SDS011;11852;50.082;18.554;2023-06-10T05:14:23;15.8;;;11.9;;
23360;SDS011;11852;50.082;18.554;2023-06-10T05:15:28;16.6;;;12.7;;
23360;SDS011;11852;50.082;18.554;2023-06-10T05:16:33;14.1;;;11.9;;
23360;SDS011;11852;50.082;18.554;2023-06-10T05:17:38;19.5;;;12.3;;
23360;SDS011;11852;50.082;18.554;2023-06-10T05:18:43;20.8;;;13.5;;
23360;SDS011;11852;50.082;18.554;2023-06-10T05:19:47;15.8;;;11.9;;
23360;SDS011;11852;50.082;18.554;2023-06-10T05:20:52;13.5;;;10.9;;
23360;SDS011;11852;50.082;18.554;2023-06-10T05:21:57;14.2;;;10.8;;
23360;SDS011;11852;50.082;18.554;2023-06-10T05:23:02;14.7;;;10.8;;
23360;SDS011;11852;50.082;18.554;2023-06-10T05:24:08;14.2;;;11.2;;
23360;SDS011;11852;50.082;18.554;2023-06-10T05:25:12;17.9;;;12.5;;
23360;SDS011;11852;50.082;18.554;2023-06-10T05:26:19;17.4;;;13.1;;
23360;SDS011;11852;50.082;18.554;2023-06-10T05:27:24;16.5;;;12.4;;
23360;SDS011;11852;50.082;18.554;2023-06-10T05:28:28;14.1;;;10.4;;
23360;SDS011;11852;50.082;18.554;2023-06-10T05:29:33;16.6;;;12.0;;
23360;SDS011;11852;50.082;18.554;2023-06-10T05:30:38;14.0;;;10.0;;
23360;SDS011;11852;50.082;18.554;2023-06-10T05:31:43;12.3;;;9.2;;
23360;SDS011;11852;50.082;18.554;2023-06-10T05:32:48;16.3;;;10.5;;
23360;SDS011;11852;50.082;18.554;2023-06-10T05:33:52;14.0;;;10.2;;
23360;SDS011;11852;50.082;18.554;2023-06-10T05:34:57;16.6;;;10.9;;
23360;SDS011;11852;50.082;18.554;2023-06-10T05:36:02;14.4;;;11.2;;
23360;SDS011;11852;50.082;18.554;2023-06-10T05:37:07;13.5;;;10.9;;
23360;SDS011;11852;50.082;18.554;2023-06-10T05:38:12;16.1;;;10.2;;
23360;SDS011;11852;50.082;18.554;2023-06-10T05:39:17;13.6;;;10.9;;
23360;SDS011;11852;50.082;18.554;2023-06-10T05:40:24;13.2;;;10.1;;
23360;SDS011;11852;50.082;18.554;2023-06-10T05:41:28;13.2;;;9.3;;
23360;SDS011;11852;50.082;18.554;2023-06-10T05:42:33;13.3;;;9.4;;
23360;SDS011;11852;50.082;18.554;2023-06-10T05:43:38;13.4;;;9.1;;
23360;SDS011;11852;50.082;18.554;2023-06-10T05:44:43;14.0;;;9.7;;
23360;SDS011;11852;50.082;18.554;2023-06-10T05:45:48;15.0;;;10.5;;
23360;SDS011;11852;50.082;18.554;2023-06-10T05:46:53;13.4;;;9.0;;
23360;SDS011;11852;50.082;18.554;2023-06-10T05:47:59;14.1;;;8.8;;
23360;SDS011;11852;50.082;18.554;2023-06-10T05:49:04;13.0;;;8.2;;
23360;SDS011;11852;50.082;18.554;2023-06-10T05:50:09;12.3;;;8.7;;
23360;SDS011;11852;50.082;18.554;2023-06-10T05:51:14;14.0;;;9.6;;
23360;SDS011;11852;50.082;18.554;2023-06-10T05:52:20;13.2;;;8.8;;
23360;SDS011;11852;50.082;18.554;2023-06-10T05:53:26;11.1;;;8.4;;
23360;SDS011;11852;50.082;18.554;2023-06-10T05:54:31;12.0;;;7.5;;
23360;SDS011;11852;50.082;18.554;2023-06-10T05:55:35;11.6;;;8.9;;
23360;SDS011;11852;50.082;18.554;2023-06-10T05:56:40;14.0;;;10.0;;
23360;SDS011;11852;50.082;18.554;2023-06-10T05:57:46;12.9;;;8.7;;
23360;SDS011;11852;50.082;18.554;2023-06-10T05:58:51;12.6;;;9.4;;
23360;SDS011;11852;50.082;18.554;2023-06-10T05:59:55;15.2;;;9.9;;
23360;SDS011;11852;50.082;18.554;2023-06-10T06:01:00;10.9;;;7.5;;
23360;SDS011;11852;50.082;18.554;2023-06-10T06:02:05;12.4;;;8.4;;
23360;SDS011;11852;50.082;18.554;2023-06-10T06:03:10;13.0;;;7.6;;
23360;SDS011;11852;50.082;18.554;2023-06-10T06:04:16;12.1;;;8.3;;
23360;SDS011;11852;50.082;18.554;2023-06-10T06:05:21;13.0;;;8.3;;
23360;SDS011;11852;50.082;18.554;2023-06-10T06:06:27;10.8;;;7.2;;
23360;SDS011;11852;50.082;18.554;2023-06-10T06:07:32;10.8;;;7.9;;
23360;SDS011;11852;50.082;18.554;2023-06-10T06:08:37;11.6;;;8.7;;
23360;SDS011;11852;50.082;18.554;2023-06-10T06:09:42;11.3;;;8.6;;
23360;SDS011;11852;50.082;18.554;2023-06-10T06:10:46;10.1;;;7.5;;
23360;SDS011;11852;50.082;18.554;2023-06-10T06:11:51;12.9;;;7.7;;
23360;SDS011;11852;50.082;18.554;2023-06-10T06:12:56;11.6;;;7.1;;
23360;SDS011;11852;50.082;18.554;2023-06-10T06:14:01;12.0;;;7.2;;
23360;SDS011;11852;50.082;18.554;2023-06-10T06:15:06;12.4;;;8.5;;
23360;SDS011;11852;50.082;18.554;2023-06-10T06:16:11;11.1;;;7.0;;
23360;SDS011;11852;50.082;18.554;2023-06-10T06:17:16;12.2;;;7.7;;
23360;SDS011;11852;50.082;18.554;2023-06-10T06:18:20;12.7;;;7.0;;
23360;SDS011;11852;50.082;18.554;2023-06-10T06:19:25;11.8;;;7.5;;
23360;SDS011;11852;50.082;18.554;2023-06-10T06:20:30;10.6;;;6.6;;
23360;SDS011;11852;50.082;18.554;2023-06-10T06:21:35;12.3;;;7.3;;
23360;SDS011;11852;50.082;18.554;2023-06-10T06:22:40;12.8;;;7.9;;
23360;SDS011;11852;50.082;18.554;2023-06-10T06:23:45;11.6;;;7.3;;
23360;SDS011;11852;50.082;18.554;2023-06-10T06:24:50;14.6;;;7.4;;
23360;SDS011;11852;50.082;18.554;2023-06-10T06:25:56;13.6;;;7.6;;
23360;SDS011;11852;50.082;18.554;2023-06-10T06:27:00;12.9;;;8.0;;
23360;SDS011;11852;50.082;18.554;2023-06-10T06:28:14;12.8;;;7.7;;
23360;SDS011;11852;50.082;18.554;2023-06-10T06:29:19;11.6;;;7.3;;
23360;SDS011;11852;50.082;18.554;2023-06-10T06:30:23;12.4;;;6.9;;
23360;SDS011;11852;50.082;18.554;2023-06-10T06:31:28;14.0;;;7.5;;
23360;SDS011;11852;50.082;18.554;2023-06-10T06:32:33;11.9;;;7.5;;
23360;SDS011;11852;50.082;18.554;2023-06-10T06:33:38;12.0;;;7.8;;